createdAt,value
2023-03-24T00:02:20.863Z,4.80
2023-03-24T00:05:24.160Z,4.30
2023-03-24T00:08:30.726Z,3.90
2023-03-24T00:11:34.735Z,4.00
2023-03-24T00:14:41.471Z,4.20
2023-03-24T00:17:45.590Z,4.50
2023-03-24T00:20:49.054Z,5.10
2023-03-24T00:23:54.683Z,5.10
2023-03-24T00:26:57.824Z,6.10
2023-03-24T00:30:00.771Z,4.70
2023-03-24T00:33:04.477Z,5.30
2023-03-24T00:36:12.769Z,5.50
2023-03-24T00:39:18.808Z,5.80
2023-03-24T00:42:22.397Z,5.10
2023-03-24T00:45:25.291Z,4.50
2023-03-24T00:48:29.765Z,5.60
2023-03-24T00:51:37.193Z,4.10
2023-03-24T00:54:41.126Z,4.20
2023-03-24T00:57:52.171Z,4.10
2023-03-24T01:00:57.046Z,4.80
2023-03-24T01:04:00.602Z,3.10
2023-03-24T01:07:03.559Z,3.90
2023-03-24T01:10:07.015Z,4.10
2023-03-24T01:13:10.586Z,3.20
2023-03-24T01:16:13.806Z,4.20
2023-03-24T01:19:16.849Z,4.80
2023-03-24T01:22:20.674Z,5.10
2023-03-24T01:25:24.051Z,6.70
2023-03-24T01:28:27.449Z,6.20
2023-03-24T01:31:30.541Z,5.80
2023-03-24T01:34:33.854Z,6.20
2023-03-24T01:37:37.284Z,7.30
2023-03-24T01:40:43.922Z,5.40
2023-03-24T01:43:47.085Z,5.70
2023-03-24T01:46:50.065Z,6.70
2023-03-24T01:50:02.984Z,5.10
2023-03-24T01:53:07.757Z,5.20
2023-03-24T01:56:11.414Z,7.10
2023-03-24T01:59:20.180Z,6.70
2023-03-24T02:02:23.553Z,6.50
2023-03-24T02:05:31.739Z,6.30
2023-03-24T02:08:41.692Z,5.10
2023-03-24T02:11:45.456Z,5.20
2023-03-24T02:14:49.153Z,5.80
2023-03-24T02:18:19.236Z,5.40
2023-03-24T02:21:44.611Z,5.80
2023-03-24T02:25:12.305Z,6.00
2023-03-24T02:28:38.966Z,6.70
2023-03-24T02:31:48.290Z,5.30
2023-03-24T02:35:13.550Z,7.40
2023-03-24T02:38:35.563Z,5.70
2023-03-24T02:42:09.528Z,5.50
2023-03-24T02:45:30.599Z,6.80
2023-03-24T02:48:39.824Z,5.70
2023-03-24T02:51:57.936Z,5.90
2023-03-24T02:55:10.473Z,6.20
2023-03-24T02:58:22.368Z,7.20
2023-03-24T03:01:54.752Z,6.50
2023-03-24T03:05:14.544Z,4.90
2023-03-24T03:08:21.817Z,6.80
2023-03-24T03:11:24.943Z,5.70
2023-03-24T03:14:36.735Z,6.00
2023-03-24T03:17:53.355Z,4.30
2023-03-24T03:21:02.103Z,6.30
2023-03-24T03:24:27.043Z,6.80
2023-03-24T03:27:39.519Z,5.20
2023-03-24T03:30:47.589Z,6.70
2023-03-24T03:33:57.100Z,5.50
2023-03-24T03:37:28.362Z,5.60
2023-03-24T03:40:51.811Z,5.00
2023-03-24T03:43:55.486Z,6.60
2023-03-24T03:46:59.179Z,5.80
2023-03-24T03:50:04.190Z,6.50
2023-03-24T03:53:11.465Z,6.60
2023-03-24T03:56:20.773Z,6.20
2023-03-24T03:59:36.371Z,6.50
2023-03-24T04:03:06.304Z,6.70
2023-03-24T04:06:32.086Z,4.40
2023-03-24T04:09:44.573Z,5.10
2023-03-24T04:12:54.831Z,6.30
2023-03-24T04:16:37.500Z,6.50
2023-03-24T04:19:43.623Z,7.10
2023-03-24T04:22:59.466Z,5.50
2023-03-24T04:26:12.278Z,6.50
2023-03-24T04:29:29.976Z,6.40
2023-03-24T04:32:54.571Z,5.70
2023-03-24T04:36:07.572Z,5.30
2023-03-24T04:39:18.397Z,5.60
2023-03-24T04:42:30.828Z,5.10
2023-03-24T04:45:36.334Z,5.70
2023-03-24T04:48:39.552Z,4.00
2023-03-24T04:51:44.118Z,5.50
2023-03-24T04:54:47.109Z,5.80
2023-03-24T04:57:50.027Z,6.30
2023-03-24T05:00:53.239Z,5.50
2023-03-24T05:04:00.015Z,6.00
2023-03-24T05:07:04.095Z,6.30
2023-03-24T05:10:07.994Z,6.70
2023-03-24T05:13:11.708Z,5.90
2023-03-24T05:16:16.083Z,5.90
2023-03-24T05:19:19.219Z,6.30
2023-03-24T05:22:22.153Z,6.40
2023-03-24T05:25:25.456Z,5.70
2023-03-24T05:28:28.432Z,6.20
2023-03-24T05:31:31.514Z,5.50
2023-03-24T05:34:34.456Z,5.50
2023-03-24T05:37:37.532Z,5.30
2023-03-24T05:40:41.521Z,5.40
2023-03-24T05:43:44.562Z,5.50
2023-03-24T05:46:47.540Z,5.90
2023-03-24T05:49:52.022Z,5.40
2023-03-24T05:52:54.905Z,5.30
2023-03-24T05:55:58.838Z,5.90
2023-03-24T05:59:02.082Z,5.60
2023-03-24T06:02:05.881Z,6.20
2023-03-24T06:05:10.369Z,7.90
2023-03-24T06:08:13.943Z,7.40
2023-03-24T06:11:17.128Z,7.00
2023-03-24T06:14:20.111Z,7.70
2023-03-24T06:17:24.779Z,8.80
2023-03-24T06:20:28.032Z,7.60
2023-03-24T06:23:31.040Z,7.00
2023-03-24T06:26:34.045Z,6.70
2023-03-24T06:29:37.214Z,7.40
2023-03-24T06:32:40.196Z,6.90
2023-03-24T06:35:43.507Z,6.50
2023-03-24T06:38:47.153Z,6.80
2023-03-24T06:41:50.045Z,6.80
2023-03-24T06:44:53.027Z,7.20
2023-03-24T06:47:56.408Z,8.00
2023-03-24T06:50:59.423Z,6.50
2023-03-24T06:54:03.382Z,7.10
2023-03-24T06:57:07.066Z,5.90
2023-03-24T07:00:10.579Z,6.40
2023-03-24T07:03:15.688Z,5.60
2023-03-24T07:06:20.365Z,6.90
2023-03-24T07:09:23.376Z,5.70
2023-03-24T07:12:26.434Z,7.00
2023-03-24T07:15:30.566Z,6.80
2023-03-24T07:18:33.941Z,6.60
2023-03-24T07:21:36.906Z,7.50
2023-03-24T07:24:39.918Z,7.10
2023-03-24T07:27:43.160Z,6.40
2023-03-24T07:30:46.643Z,8.30
2023-03-24T07:33:49.593Z,6.00
2023-03-24T07:36:52.725Z,6.30
2023-03-24T07:39:56.251Z,5.50
2023-03-24T07:43:05.899Z,7.50
2023-03-24T07:46:10.269Z,6.90
2023-03-24T07:49:19.306Z,4.30
2023-03-24T07:52:23.232Z,6.30
2023-03-24T07:55:27.441Z,5.70
2023-03-24T07:58:30.730Z,4.80
2023-03-24T08:01:37.099Z,5.70
2023-03-24T08:04:40.024Z,6.20
2023-03-24T08:07:44.785Z,5.30
2023-03-24T08:10:50.316Z,6.70
2023-03-24T08:13:53.336Z,5.30
2023-03-24T08:16:56.526Z,5.00
2023-03-24T08:20:01.461Z,3.80
2023-03-24T08:23:06.312Z,4.40
2023-03-24T08:26:10.870Z,4.60
2023-03-24T08:29:13.956Z,3.90
2023-03-24T08:32:16.971Z,4.20
2023-03-24T08:35:23.648Z,4.30
2023-03-24T08:38:32.916Z,4.10
2023-03-24T08:41:36.659Z,4.50
2023-03-24T08:44:39.651Z,3.80
2023-03-24T08:47:42.635Z,3.10
2023-03-24T08:50:45.889Z,3.90
2023-03-24T08:53:49.308Z,4.10
2023-03-24T08:56:52.508Z,3.00
2023-03-24T08:59:56.051Z,3.90
2023-03-24T09:03:01.358Z,3.40
2023-03-24T09:09:07.815Z,4.40
2023-03-24T09:12:10.824Z,4.70
2023-03-24T09:15:14.225Z,3.50
2023-03-24T09:18:18.200Z,3.50
2023-03-24T09:21:21.361Z,4.50
2023-03-24T09:24:24.661Z,4.20
2023-03-24T09:27:27.822Z,4.40
2023-03-24T09:30:32.704Z,3.40
2023-03-24T09:33:37.149Z,3.90
2023-03-24T09:36:40.099Z,4.70
2023-03-24T09:39:43.106Z,4.40
2023-03-24T09:42:53.925Z,3.90
2023-03-24T09:46:00.596Z,3.20
2023-03-24T09:49:04.890Z,4.00
2023-03-24T09:52:12.749Z,4.10
2023-03-24T09:55:26.209Z,3.40
2023-03-24T09:58:32.541Z,3.20
2023-03-24T10:01:38.866Z,4.40
2023-03-24T10:04:42.004Z,4.60
2023-03-24T10:07:57.155Z,3.20
2023-03-24T10:11:36.540Z,4.50
2023-03-24T10:15:06.415Z,4.10
2023-03-24T10:18:34.348Z,3.60
2023-03-24T10:21:41.583Z,3.30
2023-03-24T10:24:59.612Z,4.10
2023-03-24T10:28:19.089Z,3.00
2023-03-24T10:31:29.571Z,2.90
2023-03-24T10:34:34.468Z,4.30
2023-03-24T10:37:37.730Z,4.00
2023-03-24T10:40:41.553Z,3.90
2023-03-24T10:43:46.013Z,4.60
2023-03-24T10:46:53.460Z,3.30
2023-03-24T10:50:12.381Z,3.20
2023-03-24T10:53:21.315Z,3.90
2023-03-24T10:57:08.886Z,3.70
2023-03-24T11:00:24.669Z,3.80
2023-03-24T11:03:32.997Z,3.30
2023-03-24T11:06:36.446Z,2.90
2023-03-24T11:09:42.861Z,3.20
2023-03-24T11:12:57.953Z,3.30
2023-03-24T11:16:16.494Z,3.20
2023-03-24T11:19:23.273Z,3.80
2023-03-24T11:22:26.990Z,3.50
2023-03-24T11:25:34.361Z,3.50
2023-03-24T11:28:53.687Z,3.40
2023-03-24T11:32:02.183Z,4.30
2023-03-24T11:35:17.782Z,3.80
2023-03-24T11:38:30.164Z,4.40
2023-03-24T11:41:34.758Z,4.10
2023-03-24T11:44:53.815Z,5.30
2023-03-24T11:47:59.026Z,4.60
2023-03-24T11:51:04.457Z,4.80
2023-03-24T11:54:14.495Z,4.60
2023-03-24T11:57:35.994Z,4.90
2023-03-24T12:00:44.945Z,4.40
2023-03-24T12:03:59.405Z,4.00
2023-03-24T12:07:41.310Z,2.80
2023-03-24T12:11:06.383Z,3.30
2023-03-24T12:14:09.588Z,3.80
2023-03-24T12:17:22.320Z,11.20
2023-03-24T12:20:44.991Z,2.70
2023-03-24T12:23:55.804Z,2.70
2023-03-24T12:27:00.908Z,2.10
2023-03-24T12:33:50.335Z,2.40
2023-03-24T12:37:15.237Z,2.50
2023-03-24T12:40:45.939Z,2.70
2023-03-24T12:44:07.678Z,2.00
2023-03-24T12:47:42.736Z,2.40
2023-03-24T12:50:48.554Z,2.70
2023-03-24T12:53:57.596Z,2.10
2023-03-24T12:57:07.835Z,2.10
2023-03-24T13:00:34.368Z,2.20
2023-03-24T13:03:46.824Z,1.70
2023-03-24T13:07:07.794Z,2.30
2023-03-24T13:10:27.592Z,2.00
2023-03-24T13:13:36.594Z,1.40
2023-03-24T13:16:41.133Z,1.90
2023-03-24T13:19:44.404Z,2.10
2023-03-24T13:22:47.945Z,1.90
2023-03-24T13:26:06.628Z,2.20
2023-03-24T13:29:16.396Z,1.60
2023-03-24T13:32:25.502Z,1.80
2023-03-24T13:35:45.643Z,2.20
2023-03-24T13:38:53.963Z,2.50
2023-03-24T13:41:59.234Z,2.50
2023-03-24T13:48:09.922Z,2.10
2023-03-24T13:51:34.201Z,2.20
2023-03-24T13:54:37.907Z,2.00
2023-03-24T13:57:43.013Z,2.30
2023-03-24T14:04:20.016Z,3.30
2023-03-24T14:07:41.413Z,2.80
2023-03-24T14:10:48.606Z,2.30
2023-03-24T14:13:53.268Z,2.60
2023-03-24T14:17:14.422Z,3.60
2023-03-24T14:20:33.147Z,3.20
2023-03-24T14:23:47.256Z,2.70
2023-03-24T14:26:50.404Z,2.20
2023-03-24T14:29:54.480Z,2.20
2023-03-24T14:33:00.290Z,2.20
2023-03-24T14:36:06.741Z,2.20
2023-03-24T14:39:18.133Z,2.40
2023-03-24T14:42:33.358Z,2.70
2023-03-24T14:45:51.707Z,2.20
2023-03-24T14:49:14.006Z,2.90
2023-03-24T14:52:21.859Z,2.20
2023-03-24T14:55:27.119Z,2.20
2023-03-24T14:58:39.077Z,2.20
2023-03-24T15:01:45.731Z,2.90
2023-03-24T15:05:31.877Z,2.40
2023-03-24T15:08:34.940Z,2.50
2023-03-24T15:11:40.526Z,2.00
2023-03-24T15:14:44.141Z,2.00
2023-03-24T15:17:47.819Z,2.80
2023-03-24T15:20:51.354Z,2.60
2023-03-24T15:24:24.032Z,2.20
2023-03-24T15:27:51.383Z,2.00
2023-03-24T15:30:56.827Z,2.00
2023-03-24T15:34:28.018Z,2.70
2023-03-24T15:37:40.630Z,2.30
2023-03-24T15:40:56.923Z,2.50
2023-03-24T15:43:59.853Z,2.90
2023-03-24T15:47:04.130Z,2.60
2023-03-24T15:50:34.952Z,3.10
2023-03-24T15:53:59.200Z,2.60
2023-03-24T15:57:16.788Z,2.90
2023-03-24T16:00:25.110Z,2.50
2023-03-24T16:03:30.785Z,3.50
2023-03-24T16:06:35.598Z,3.70
2023-03-24T16:09:41.089Z,3.70
2023-03-24T16:12:43.966Z,4.40
2023-03-24T16:15:55.876Z,3.90
2023-03-24T16:18:59.590Z,3.70
2023-03-24T16:22:02.537Z,2.90
2023-03-24T16:25:06.282Z,2.80
2023-03-24T16:28:20.091Z,3.30
2023-03-24T16:31:26.091Z,3.40
2023-03-24T16:34:29.028Z,2.90
2023-03-24T16:37:32.624Z,2.80
2023-03-24T16:40:49.289Z,3.80
2023-03-24T16:43:53.368Z,2.10
2023-03-24T16:46:56.420Z,2.70
2023-03-24T16:49:59.378Z,3.40
2023-03-24T16:53:04.020Z,2.50
2023-03-24T16:56:07.800Z,3.00
2023-03-24T16:59:12.617Z,3.60
2023-03-24T17:02:15.656Z,2.70
2023-03-24T17:05:22.752Z,2.60
2023-03-24T17:08:25.834Z,2.50
2023-03-24T17:11:32.541Z,2.10
2023-03-24T17:14:35.453Z,3.00
2023-03-24T17:17:38.269Z,2.90
2023-03-24T17:20:41.377Z,2.90
2023-03-24T17:23:46.905Z,2.70
2023-03-24T17:26:49.808Z,3.20
2023-03-24T17:29:52.609Z,3.10
2023-03-24T17:32:57.984Z,3.70
2023-03-24T17:36:01.074Z,6.00
2023-03-24T17:39:05.412Z,3.40
2023-03-24T17:42:08.357Z,3.90
2023-03-24T17:45:15.821Z,3.60
2023-03-24T17:48:18.690Z,4.80
2023-03-24T17:51:21.554Z,4.60
2023-03-24T17:54:25.565Z,3.20
2023-03-24T17:57:28.452Z,4.40
2023-03-24T18:00:31.536Z,5.10
2023-03-24T18:03:36.454Z,6.70
2023-03-24T18:06:42.121Z,6.10
2023-03-24T18:09:45.112Z,5.50
2023-03-24T18:12:48.269Z,5.70
2023-03-24T18:15:51.107Z,7.60
2023-03-24T18:18:54.027Z,5.70
2023-03-24T18:21:57.334Z,4.80
2023-03-24T18:25:01.858Z,5.00
2023-03-24T18:28:05.062Z,3.50
2023-03-24T18:31:16.071Z,2.60
2023-03-24T18:34:19.769Z,2.90
2023-03-24T18:37:22.713Z,1.50
2023-03-24T18:40:26.534Z,2.20
2023-03-24T18:43:38.041Z,2.10
2023-03-24T18:46:41.127Z,2.80
2023-03-24T18:49:44.720Z,1.50
2023-03-24T18:52:48.408Z,2.20
2023-03-24T18:55:51.924Z,2.70
2023-03-24T18:58:54.950Z,2.00
2023-03-24T19:01:58.230Z,2.20
2023-03-24T19:05:02.543Z,1.40
2023-03-24T19:08:07.462Z,2.50
2023-03-24T19:11:11.343Z,3.20
2023-03-24T19:14:14.580Z,3.90
2023-03-24T19:17:17.462Z,2.20
2023-03-24T19:20:20.540Z,3.10
2023-03-24T19:23:25.137Z,3.50
2023-03-24T19:26:27.977Z,3.80
2023-03-24T19:29:30.887Z,3.80
2023-03-24T19:32:33.855Z,4.00
2023-03-24T19:35:36.990Z,4.10
2023-03-24T19:38:39.925Z,4.20
2023-03-24T19:41:42.790Z,3.50
2023-03-24T19:44:45.809Z,3.30
2023-03-24T19:47:48.983Z,3.40
2023-03-24T19:50:53.872Z,3.60
2023-03-24T19:53:56.918Z,3.00
2023-03-24T19:56:59.854Z,4.20
2023-03-24T20:00:03.979Z,3.20
2023-03-24T20:03:07.146Z,3.90
2023-03-24T20:06:10.515Z,4.00
2023-03-24T20:09:13.723Z,3.50
2023-03-24T20:12:16.751Z,2.70
2023-03-24T20:15:19.820Z,4.70
2023-03-24T20:18:22.695Z,4.40
2023-03-24T20:21:25.681Z,3.60
2023-03-24T20:24:28.538Z,3.30
2023-03-24T20:27:31.528Z,2.90
2023-03-24T20:30:34.370Z,2.90
2023-03-24T20:33:37.780Z,2.40
2023-03-24T20:36:41.391Z,3.30
2023-03-24T20:39:44.296Z,2.90
2023-03-24T20:42:47.349Z,2.80
2023-03-24T20:45:50.538Z,3.20
2023-03-24T20:48:53.614Z,2.20
2023-03-24T20:51:56.504Z,2.50
2023-03-24T20:55:01.726Z,3.60
2023-03-24T20:58:08.229Z,2.30
2023-03-24T21:01:20.874Z,2.80
2023-03-24T21:04:24.348Z,2.50
2023-03-24T21:07:27.332Z,2.60
2023-03-24T21:10:30.183Z,2.10
2023-03-24T21:13:37.485Z,2.60
2023-03-24T21:16:40.782Z,1.10
2023-03-24T21:19:46.990Z,1.90
2023-03-24T21:22:56.231Z,1.90
2023-03-24T21:25:59.195Z,1.90
2023-03-24T21:29:02.081Z,1.90
2023-03-24T21:32:05.218Z,2.10
2023-03-24T21:35:09.310Z,2.80
2023-03-24T21:38:13.177Z,2.80
2023-03-24T21:41:17.496Z,2.10
2023-03-24T21:44:20.524Z,2.60
2023-03-24T21:47:25.248Z,2.90
2023-03-24T21:50:29.160Z,3.00
2023-03-24T21:53:32.054Z,2.60
2023-03-24T21:56:36.032Z,2.30
2023-03-24T21:59:40.135Z,3.80
2023-03-24T22:02:45.581Z,3.30
2023-03-24T22:05:48.839Z,3.00
2023-03-24T22:08:53.280Z,3.20
2023-03-24T22:11:57.341Z,4.10
2023-03-24T22:15:00.602Z,3.10
2023-03-24T22:18:03.888Z,3.80
2023-03-24T22:21:08.999Z,3.00
2023-03-24T22:24:11.902Z,3.40
2023-03-24T22:27:14.795Z,3.50
2023-03-24T22:30:17.829Z,3.30
2023-03-24T22:33:20.747Z,3.20
2023-03-24T22:36:23.577Z,3.20
2023-03-24T22:39:27.198Z,4.10
2023-03-24T22:42:30.058Z,3.30
2023-03-24T22:45:33.506Z,4.40
2023-03-24T22:48:38.275Z,3.60
2023-03-24T22:51:43.416Z,4.70
2023-03-24T22:54:50.043Z,4.50
2023-03-24T22:57:59.760Z,3.10
2023-03-24T23:01:03.866Z,3.50
2023-03-24T23:04:06.903Z,2.60
2023-03-24T23:07:10.408Z,2.40
2023-03-24T23:10:13.397Z,2.20
2023-03-24T23:13:20.210Z,3.60
2023-03-24T23:16:23.078Z,3.50
2023-03-24T23:19:26.507Z,3.60
2023-03-24T23:22:29.278Z,3.60
2023-03-24T23:25:33.260Z,2.30
2023-03-24T23:28:36.180Z,2.00
2023-03-24T23:31:41.223Z,2.90
2023-03-24T23:34:46.129Z,2.60
2023-03-24T23:37:49.590Z,2.50
2023-03-24T23:40:52.506Z,2.20
2023-03-24T23:43:55.862Z,2.60
2023-03-24T23:46:58.861Z,3.00
2023-03-24T23:50:01.701Z,2.30
2023-03-24T23:53:04.520Z,2.30
2023-03-24T23:56:09.128Z,2.60
2023-03-24T23:59:12.026Z,2.10
